createdAt,value
2023-01-07T00:01:40.609Z,101447.25
2023-01-07T00:04:11.116Z,101449.78
2023-01-07T00:06:40.932Z,101452.59
2023-01-07T00:09:12.860Z,101454.22
2023-01-07T00:11:41.528Z,101443.03
2023-01-07T00:14:11.159Z,101432.06
2023-01-07T00:16:39.495Z,101440.28
2023-01-07T00:19:08.964Z,101449.00
2023-01-07T00:21:36.549Z,101433.66
2023-01-07T00:24:06.266Z,101431.59
2023-01-07T00:26:39.405Z,101445.78
2023-01-07T00:29:07.970Z,101448.09
2023-01-07T00:31:37.696Z,101444.47
2023-01-07T00:34:05.421Z,101444.31
2023-01-07T00:36:36.927Z,101429.41
2023-01-07T00:39:10.650Z,101439.00
2023-01-07T00:41:37.745Z,101430.72
2023-01-07T00:44:06.548Z,101431.19
2023-01-07T00:46:34.750Z,101431.28
2023-01-07T00:49:02.578Z,101433.88
2023-01-07T00:51:30.020Z,101425.13
2023-01-07T00:53:57.323Z,101426.44
2023-01-07T00:56:24.774Z,101414.59
2023-01-07T00:58:52.072Z,101416.72
2023-01-07T01:01:19.372Z,101416.66
2023-01-07T01:03:46.658Z,101401.81
2023-01-07T01:06:16.499Z,101407.88
2023-01-07T01:08:47.647Z,101409.34
2023-01-07T01:11:16.989Z,101410.84
2023-01-07T01:13:45.751Z,101400.03
2023-01-07T01:16:18.479Z,101398.00
2023-01-07T01:18:46.996Z,101393.22
2023-01-07T01:21:16.099Z,101391.84
2023-01-07T01:23:44.081Z,101392.00
2023-01-07T01:26:17.523Z,101388.06
2023-01-07T01:28:45.519Z,101384.53
2023-01-07T01:31:13.087Z,101391.91
2023-01-07T01:33:40.518Z,101385.63
2023-01-07T01:36:10.644Z,101394.41
2023-01-07T01:38:38.219Z,101391.72
2023-01-07T01:41:07.076Z,101392.81
2023-01-07T01:43:39.966Z,101387.88
2023-01-07T01:46:15.393Z,101391.84
2023-01-07T01:48:48.289Z,101391.50
2023-01-07T01:51:18.764Z,101393.19
2023-01-07T01:53:51.318Z,101388.41
2023-01-07T01:56:23.109Z,101389.13
2023-01-07T01:58:57.586Z,101384.38
2023-01-07T02:01:25.144Z,101375.84
2023-01-07T02:03:53.064Z,101381.94
2023-01-07T02:06:33.914Z,101374.84
2023-01-07T02:09:01.415Z,101376.56
2023-01-07T02:11:57.299Z,101369.13
2023-01-07T02:15:05.350Z,101380.47
2023-01-07T02:18:09.385Z,101366.25
2023-01-07T02:20:53.704Z,101372.41
2023-01-07T02:23:46.791Z,101368.66
2023-01-07T02:26:35.203Z,101363.28
2023-01-07T02:29:16.934Z,101357.69
2023-01-07T02:32:02.112Z,101344.19
2023-01-07T02:34:29.469Z,101349.47
2023-01-07T02:37:13.516Z,101355.31
2023-01-07T02:39:57.000Z,101345.78
2023-01-07T02:42:57.562Z,101342.53
2023-01-07T02:45:31.315Z,101348.81
2023-01-07T02:48:05.604Z,101338.44
2023-01-07T02:50:33.079Z,101332.41
2023-01-07T02:53:00.453Z,101330.97
2023-01-07T02:55:55.210Z,101317.22
2023-01-07T02:58:54.542Z,101327.47
2023-01-07T03:01:43.671Z,101317.72
2023-01-07T03:04:38.793Z,101317.88
2023-01-07T03:07:41.264Z,101313.56
2023-01-07T03:10:31.136Z,101316.06
2023-01-07T03:13:05.626Z,101311.91
2023-01-07T03:15:43.642Z,101322.38
2023-01-07T03:18:33.427Z,101312.78
2023-01-07T03:21:04.277Z,101314.84
2023-01-07T03:23:35.095Z,101308.19
2023-01-07T03:26:05.748Z,101306.50
2023-01-07T03:28:37.775Z,101311.56
2023-01-07T03:31:06.587Z,101308.22
2023-01-07T03:33:58.586Z,101302.84
2023-01-07T03:36:33.407Z,101305.13
2023-01-07T03:39:04.844Z,101305.38
2023-01-07T03:41:50.214Z,101290.53
2023-01-07T03:44:17.353Z,101293.28
2023-01-07T03:46:45.144Z,101285.78
2023-01-07T03:49:13.039Z,101293.28
2023-01-07T03:51:40.179Z,101276.41
2023-01-07T03:54:07.434Z,101293.31
2023-01-07T03:56:34.775Z,101277.03
2023-01-07T03:59:01.860Z,101274.53
2023-01-07T04:01:29.299Z,101264.13
2023-01-07T04:03:56.852Z,101273.09
2023-01-07T04:06:24.410Z,101278.75
2023-01-07T04:08:51.986Z,101263.94
2023-01-07T04:11:19.235Z,101255.81
2023-01-07T04:13:46.536Z,101259.34
2023-01-07T04:16:13.890Z,101253.91
2023-01-07T04:18:41.179Z,101252.66
2023-01-07T04:21:08.443Z,101249.97
2023-01-07T04:23:35.821Z,101243.69
2023-01-07T04:26:03.037Z,101246.63
2023-01-07T04:28:30.359Z,101247.88
2023-01-07T04:30:59.715Z,101252.47
2023-01-07T04:33:27.496Z,101245.78
2023-01-07T04:35:55.090Z,101246.63
2023-01-07T04:38:25.361Z,101236.38
2023-01-07T04:40:54.895Z,101238.69
2023-01-07T04:43:22.158Z,101238.69
2023-01-07T04:45:49.578Z,101239.31
2023-01-07T04:48:17.432Z,101234.91
2023-01-07T04:50:46.868Z,101236.38
2023-01-07T04:53:14.689Z,101233.44
2023-01-07T04:55:42.662Z,101226.75
2023-01-07T04:58:10.836Z,101227.56
2023-01-07T05:00:38.056Z,101225.28
2023-01-07T05:03:05.546Z,101220.03
2023-01-07T05:05:33.263Z,101237.38
2023-01-07T05:08:00.734Z,101235.31
2023-01-07T05:10:27.855Z,101238.63
2023-01-07T05:12:56.372Z,101226.06
2023-01-07T05:15:23.547Z,101229.22
2023-01-07T05:17:50.679Z,101232.75
2023-01-07T05:20:17.868Z,101226.06
2023-01-07T05:22:46.886Z,101228.16
2023-01-07T05:25:14.131Z,101232.09
2023-01-07T05:27:41.700Z,101229.19
2023-01-07T05:30:10.751Z,101228.53
2023-01-07T05:32:38.146Z,101228.75
2023-01-07T05:35:05.912Z,101221.19
2023-01-07T05:37:33.132Z,101219.09
2023-01-07T05:40:00.298Z,101211.81
2023-01-07T05:42:28.168Z,101213.44
2023-01-07T05:44:55.495Z,101217.81
2023-01-07T05:47:22.751Z,101216.34
2023-01-07T05:49:50.028Z,101217.78
2023-01-07T05:52:17.448Z,101213.81
2023-01-07T05:54:44.672Z,101227.19
2023-01-07T05:57:11.901Z,101209.22
2023-01-07T05:59:39.417Z,101206.69
2023-01-07T06:02:06.833Z,101223.38
2023-01-07T06:04:34.677Z,101214.38
2023-01-07T06:07:04.528Z,101212.44
2023-01-07T06:09:31.956Z,101219.13
2023-01-07T06:11:59.957Z,101216.25
2023-01-07T06:14:32.008Z,101223.53
2023-01-07T06:17:08.038Z,101224.56
2023-01-07T06:19:41.017Z,101222.03
2023-01-07T06:22:08.295Z,101224.75
2023-01-07T06:24:36.143Z,101228.34
2023-01-07T06:27:03.740Z,101231.06
2023-01-07T06:29:31.216Z,101232.06
2023-01-07T06:32:00.435Z,101230.19
2023-01-07T06:34:27.827Z,101225.78
2023-01-07T06:36:55.206Z,101227.47
2023-01-07T06:39:25.265Z,101216.97
2023-01-07T06:41:58.886Z,101225.13
2023-01-07T06:44:33.388Z,101221.94
2023-01-07T06:47:09.130Z,101229.47
2023-01-07T06:49:36.865Z,101219.66
2023-01-07T06:52:08.089Z,101227.19
2023-01-07T06:54:35.631Z,101228.03
2023-01-07T06:57:10.778Z,101219.66
2023-01-07T06:59:42.520Z,101225.94
2023-01-07T07:02:22.733Z,101215.38
2023-01-07T07:04:53.182Z,101220.22
2023-01-07T07:07:20.713Z,101222.09
2023-01-07T07:09:51.377Z,101207.66
2023-01-07T07:12:22.472Z,101210.75
2023-01-07T07:15:03.334Z,101202.78
2023-01-07T07:17:32.068Z,101208.63
2023-01-07T07:20:00.723Z,101206.94
2023-01-07T07:22:34.460Z,101207.56
2023-01-07T07:25:04.222Z,101207.78
2023-01-07T07:32:35.901Z,101207.97
2023-01-07T07:35:03.259Z,101208.38
2023-01-07T07:37:30.655Z,101209.00
2023-01-07T07:39:57.939Z,101208.13
2023-01-07T07:42:27.825Z,101201.25
2023-01-07T07:53:16.785Z,101209.41
2023-01-07T07:55:45.702Z,101206.22
2023-01-07T08:20:32.987Z,101183.63
2023-01-07T08:23:06.186Z,101184.84
2023-01-07T08:25:36.853Z,101176.91
2023-01-07T08:28:13.809Z,101171.44
2023-01-07T08:30:47.665Z,101170.81
2023-01-07T08:36:48.958Z,101170.34
2023-01-07T08:39:17.062Z,101161.78
2023-01-07T08:41:45.756Z,101170.94
2023-01-07T08:44:13.400Z,101173.47
2023-01-07T08:46:42.209Z,101174.28
2023-01-07T08:49:11.669Z,101171.09
2023-01-07T08:51:40.393Z,101173.81
2023-01-07T08:54:07.564Z,101167.31
2023-01-07T08:56:36.056Z,101166.28
2023-01-07T08:59:13.390Z,101169.16
2023-01-07T09:01:41.879Z,101176.50
2023-01-07T09:04:12.148Z,101175.22
2023-01-07T09:06:39.777Z,101170.38
2023-01-07T09:09:08.383Z,101169.94
2023-01-07T09:11:35.651Z,101169.94
2023-01-07T09:14:03.195Z,101164.03
2023-01-07T09:16:31.243Z,101164.41
2023-01-07T09:18:58.605Z,101167.72
2023-01-07T09:21:26.216Z,101173.19
2023-01-07T09:23:53.453Z,101171.97
2023-01-07T09:26:20.552Z,101172.59
2023-01-07T09:28:47.895Z,101169.63
2023-01-07T09:31:15.052Z,101169.94
2023-01-07T09:33:43.684Z,101170.25
2023-01-07T09:36:10.904Z,101171.84
2023-01-07T09:38:38.216Z,101172.66
2023-01-07T09:41:15.784Z,101174.56
2023-01-07T09:44:00.890Z,101174.34
2023-01-07T09:46:30.491Z,101179.34
2023-01-07T09:49:02.550Z,101170.19
2023-01-07T09:51:39.591Z,101177.66
2023-01-07T09:54:19.203Z,101182.06
2023-01-07T09:56:48.341Z,101177.88
2023-01-07T18:46:17.488Z,100604.47
2023-01-07T18:48:52.941Z,100603.41
2023-01-07T18:54:03.192Z,100609.16
2023-01-07T19:02:01.100Z,100592.41
2023-01-07T19:04:29.098Z,100587.34
2023-01-07T19:07:26.769Z,100593.44
2023-01-07T19:09:54.455Z,100594.22
2023-01-07T19:34:35.611Z,100567.03
2023-01-07T19:37:03.515Z,100562.75
2023-01-07T19:39:31.171Z,100555.88
2023-01-07T19:41:58.992Z,100541.03
2023-01-07T19:44:26.653Z,100560.41
2023-01-07T19:46:56.117Z,100554.84
2023-01-07T19:49:23.939Z,100557.78
2023-01-07T19:51:52.648Z,100542.78
2023-01-07T19:54:20.198Z,100543.91
2023-01-07T19:56:50.134Z,100533.25
2023-01-07T19:59:20.333Z,100537.47
2023-01-07T20:01:53.973Z,100536.97
2023-01-07T20:04:22.113Z,100516.97
2023-01-07T20:06:51.668Z,100515.59
2023-01-07T20:09:19.202Z,100518.91
2023-01-07T20:11:46.793Z,100512.75
2023-01-07T20:14:19.873Z,100500.66
2023-01-07T20:16:47.138Z,100506.09
2023-01-07T20:19:14.665Z,100501.13
2023-01-07T20:21:42.575Z,100497.81
2023-01-07T20:24:12.126Z,100487.09
2023-01-07T20:26:41.703Z,100483.53
2023-01-07T20:29:09.394Z,100481.50
2023-01-07T20:31:36.631Z,100475.94
2023-01-07T20:34:03.907Z,100470.50
2023-01-07T20:36:33.452Z,100471.34
2023-01-07T20:39:11.629Z,100464.41
2023-01-07T20:41:44.684Z,100462.78
2023-01-07T20:44:15.443Z,100462.50
2023-01-07T20:46:42.986Z,100454.63
2023-01-07T20:49:10.988Z,100446.28
2023-01-07T20:51:38.936Z,100445.44
2023-01-07T20:54:09.126Z,100451.34
2023-01-07T20:56:37.224Z,100457.81
2023-01-07T20:59:04.715Z,100449.19
2023-01-07T21:01:32.472Z,100443.19
2023-01-07T21:04:04.142Z,100442.13
2023-01-07T21:06:31.871Z,100431.25
2023-01-07T21:08:59.751Z,100423.13
2023-01-07T21:11:27.252Z,100424.16
2023-01-07T21:13:56.747Z,100415.16
2023-01-07T21:16:26.499Z,100417.81
2023-01-07T21:18:53.939Z,100409.28
2023-01-07T21:21:26.694Z,100416.53
2023-01-07T21:23:55.586Z,100417.34
2023-01-07T21:26:23.420Z,100413.56
2023-01-07T21:28:53.839Z,100411.91
2023-01-07T21:31:22.635Z,100398.31
2023-01-07T21:33:53.467Z,100411.44
2023-01-07T21:36:20.797Z,100409.22
2023-01-07T21:38:54.676Z,100406.75
2023-01-07T21:41:22.829Z,100411.34
2023-01-07T21:43:50.614Z,100419.16
2023-01-07T21:46:18.356Z,100408.84
2023-01-07T21:48:47.196Z,100412.06
2023-01-07T21:51:44.262Z,100411.63
2023-01-07T21:54:14.695Z,100404.63
2023-01-07T21:56:43.390Z,100415.50
2023-01-07T21:59:13.403Z,100410.44
2023-01-07T22:01:43.478Z,100410.69
2023-01-07T22:04:12.534Z,100417.88
2023-01-07T22:06:40.157Z,100417.41
2023-01-07T22:09:13.058Z,100416.81
2023-01-07T22:11:44.671Z,100420.09
2023-01-07T22:14:18.066Z,100406.28
2023-01-07T22:16:49.033Z,100402.03
2023-01-07T22:19:18.441Z,100394.69
2023-01-07T22:21:45.884Z,100395.75
2023-01-07T22:24:14.841Z,100385.38
2023-01-07T22:26:44.626Z,100379.00
2023-01-07T22:29:15.617Z,100375.56
2023-01-07T22:31:43.564Z,100381.00
2023-01-07T22:34:11.226Z,100376.66
2023-01-07T22:36:57.077Z,100371.44
2023-01-07T22:39:35.604Z,100370.63
2023-01-07T22:42:10.727Z,100374.75
2023-01-07T22:44:46.423Z,100362.59
2023-01-07T22:47:17.899Z,100368.38
2023-01-07T22:49:49.691Z,100374.06
2023-01-07T22:52:17.315Z,100367.44
2023-01-07T22:54:44.859Z,100361.03
2023-01-07T22:57:15.050Z,100349.72
2023-01-07T22:59:42.565Z,100345.47
2023-01-07T23:02:12.843Z,100347.25
2023-01-07T23:04:40.194Z,100349.25
2023-01-07T23:07:10.619Z,100341.69
2023-01-07T23:09:38.031Z,100346.03
2023-01-07T23:12:08.580Z,100336.25
2023-01-07T23:14:36.097Z,100330.94
2023-01-07T23:17:03.921Z,100338.25
2023-01-07T23:19:32.496Z,100323.72
2023-01-07T23:22:00.118Z,100326.44
2023-01-07T23:24:27.802Z,100334.59
2023-01-07T23:26:55.492Z,100331.63
2023-01-07T23:29:23.693Z,100324.16
2023-01-07T23:31:51.264Z,100320.63
2023-01-07T23:34:19.172Z,100334.22
2023-01-07T23:36:48.026Z,100318.41
2023-01-07T23:39:18.479Z,100309.88
2023-01-07T23:41:46.253Z,100304.22
2023-01-07T23:44:14.567Z,100302.09
2023-01-07T23:46:44.746Z,100306.56
2023-01-07T23:49:12.328Z,100301.25
2023-01-07T23:51:43.058Z,100296.78
2023-01-07T23:54:11.106Z,100296.66
2023-01-07T23:56:38.822Z,100298.78
2023-01-07T23:59:07.262Z,100298.78
